createdAt,value
2023-03-19T00:03:58.240Z,99936.66
2023-03-19T00:08:59.901Z,99939.97
2023-03-19T00:14:01.698Z,99957.72
2023-03-19T00:19:03.931Z,99942.06
2023-03-19T00:24:05.930Z,99932.31
2023-03-19T00:29:08.392Z,99921.41
2023-03-19T00:34:10.447Z,99919.91
2023-03-19T00:39:12.520Z,99917.28
2023-03-19T00:44:14.152Z,99927.47
2023-03-19T00:49:15.817Z,99930.72
2023-03-19T00:54:17.917Z,99931.59
2023-03-19T00:59:20.304Z,99931.28
2023-03-19T01:04:24.005Z,99923.69
2023-03-19T01:09:27.434Z,99921.94
2023-03-19T01:14:29.071Z,99916.94
2023-03-19T01:19:30.769Z,99912.53
2023-03-19T01:24:32.646Z,99906.31
2023-03-19T01:29:35.410Z,99897.72
2023-03-19T01:34:46.672Z,99900.63
2023-03-19T01:39:51.208Z,99900.34
2023-03-19T01:44:53.027Z,99905.94
2023-03-19T01:50:04.466Z,99907.25
2023-03-19T01:55:07.406Z,99911.09
2023-03-19T02:00:24.101Z,99905.81
2023-03-19T02:05:29.181Z,99895.72
2023-03-19T02:10:37.205Z,99903.09
2023-03-19T02:15:39.210Z,99901.84
2023-03-19T02:20:47.166Z,99904.09
2023-03-19T02:26:10.220Z,99906.38
2023-03-19T02:31:13.376Z,99913.63
2023-03-19T02:36:18.263Z,99910.81
2023-03-19T02:41:19.983Z,99921.53
2023-03-19T02:46:21.749Z,99923.91
2023-03-19T02:51:23.476Z,99933.69
2023-03-19T02:56:26.214Z,99936.72
2023-03-19T03:01:28.427Z,99930.66
2023-03-19T03:06:30.523Z,99934.59
2023-03-19T03:11:32.193Z,99939.16
2023-03-19T03:16:33.856Z,99938.09
2023-03-19T03:21:35.939Z,99947.03
2023-03-19T03:26:39.007Z,99948.50
2023-03-19T03:31:40.763Z,99954.84
2023-03-19T03:36:42.423Z,99962.00
2023-03-19T03:41:44.209Z,99954.06
2023-03-19T03:46:46.616Z,99973.09
2023-03-19T03:51:48.993Z,99991.28
2023-03-19T03:56:51.246Z,99993.38
2023-03-19T04:01:53.049Z,99991.53
2023-03-19T04:06:55.443Z,99988.63
2023-03-19T04:12:06.615Z,99985.94
2023-03-19T04:17:08.254Z,99969.75
2023-03-19T04:22:10.272Z,99986.28
2023-03-19T04:27:12.452Z,100005.31
2023-03-19T04:32:15.375Z,100005.09
2023-03-19T04:37:17.520Z,99986.75
2023-03-19T04:42:23.656Z,99979.16
2023-03-19T04:47:32.817Z,99987.94
2023-03-19T04:52:37.427Z,100000.88
2023-03-19T04:57:39.661Z,100012.28
2023-03-19T05:02:43.072Z,100001.19
2023-03-19T05:07:45.316Z,99985.59
2023-03-19T05:12:47.279Z,99988.94
2023-03-19T05:17:50.054Z,100010.47
2023-03-19T05:23:01.297Z,100004.09
2023-03-19T05:28:12.585Z,100008.44
2023-03-19T05:33:14.636Z,99996.81
2023-03-19T05:38:19.615Z,99997.53
2023-03-19T05:43:29.403Z,100005.41
2023-03-19T05:48:33.608Z,99997.78
2023-03-19T05:53:37.508Z,100001.13
2023-03-19T05:59:01.000Z,100003.63
2023-03-19T06:04:11.567Z,100018.63
2023-03-19T06:09:13.529Z,100022.53
2023-03-19T06:14:18.092Z,100018.00
2023-03-19T06:19:34.029Z,100015.44
2023-03-19T06:24:36.989Z,100017.66
2023-03-19T06:29:39.007Z,100021.50
2023-03-19T06:34:56.606Z,100025.50
2023-03-19T06:39:58.694Z,100017.56
2023-03-19T06:45:00.373Z,100024.22
2023-03-19T06:50:22.029Z,100026.38
2023-03-19T06:55:23.623Z,100020.44
2023-03-19T07:00:25.348Z,100022.56
2023-03-19T07:05:27.039Z,100028.66
2023-03-19T07:10:29.120Z,100032.28
2023-03-19T07:15:30.984Z,100024.81
2023-03-19T07:20:33.336Z,100020.16
2023-03-19T07:25:35.500Z,100010.34
2023-03-19T07:30:38.503Z,100012.81
2023-03-19T07:35:40.176Z,100018.31
2023-03-19T07:40:51.362Z,100032.00
2023-03-19T07:46:01.515Z,100043.94
2023-03-19T07:51:06.541Z,100046.03
2023-03-19T07:56:08.132Z,100039.81
2023-03-19T08:01:10.194Z,100036.53
2023-03-19T08:06:11.811Z,100040.00
2023-03-19T08:11:14.716Z,100032.59
2023-03-19T08:16:16.337Z,100048.94
2023-03-19T08:21:18.239Z,100033.03
2023-03-19T08:26:19.843Z,100023.88
2023-03-19T08:31:21.531Z,100028.22
2023-03-19T08:36:23.201Z,100033.56
2023-03-19T08:41:25.362Z,100028.47
2023-03-19T08:46:27.789Z,100031.00
2023-03-19T08:51:31.501Z,100026.19
2023-03-19T08:56:33.406Z,100017.97
2023-03-19T09:01:35.569Z,100015.16
2023-03-19T09:06:37.210Z,100011.53
2023-03-19T09:11:39.075Z,100000.75
2023-03-19T09:16:41.054Z,100015.94
2023-03-19T09:21:43.076Z,100009.31
2023-03-19T09:26:46.361Z,100006.22
2023-03-19T09:31:48.101Z,100011.34
2023-03-19T09:36:49.823Z,100006.41
2023-03-19T09:42:08.837Z,100014.94
2023-03-19T09:47:31.445Z,100032.09
2023-03-19T09:52:49.605Z,100004.63
2023-03-19T09:57:56.439Z,99987.03
2023-03-19T10:03:16.712Z,99982.09
2023-03-19T10:08:36.248Z,99961.09
2023-03-19T10:13:49.757Z,99959.47
2023-03-19T10:18:54.292Z,99967.06
2023-03-19T10:24:02.491Z,99967.88
2023-03-19T10:29:19.676Z,99956.00
2023-03-19T10:34:31.810Z,99952.50
2023-03-19T10:39:36.768Z,99950.66
2023-03-19T10:44:50.942Z,99950.69
2023-03-19T10:49:53.914Z,99954.75
2023-03-19T10:55:02.222Z,99942.59
2023-03-19T11:00:07.172Z,99933.25
2023-03-19T11:05:15.602Z,99928.44
2023-03-19T11:10:19.979Z,99918.28
2023-03-19T11:15:43.419Z,99923.22
2023-03-19T11:20:54.258Z,99933.16
2023-03-19T11:26:01.719Z,99921.16
2023-03-19T11:31:19.999Z,99921.31
2023-03-19T11:36:29.549Z,99919.41
2023-03-19T11:41:43.089Z,99915.50
2023-03-19T11:47:03.857Z,99907.50
2023-03-19T11:52:34.112Z,99898.44
2023-03-19T11:58:06.838Z,99880.44
2023-03-19T12:03:30.003Z,99882.03
2023-03-19T12:08:51.234Z,99872.63
2023-03-19T12:14:32.960Z,99855.31
2023-03-19T12:20:03.157Z,99856.16
2023-03-19T12:25:16.927Z,99850.59
2023-03-19T12:30:26.538Z,99843.59
2023-03-19T12:35:35.852Z,99837.78
2023-03-19T12:40:52.673Z,99832.66
2023-03-19T12:46:14.970Z,99822.38
2023-03-19T12:51:22.791Z,99822.53
2023-03-19T12:56:43.888Z,99822.16
2023-03-19T13:01:51.099Z,99823.75
2023-03-19T13:06:59.269Z,99810.81
2023-03-19T13:12:10.707Z,99804.66
2023-03-19T13:17:24.240Z,99813.69
2023-03-19T13:22:37.418Z,99813.03
2023-03-19T13:27:39.148Z,99810.16
2023-03-19T13:32:48.041Z,99811.00
2023-03-19T13:37:54.710Z,99798.09
2023-03-19T13:42:57.289Z,99790.50
2023-03-19T13:48:28.650Z,99790.69
2023-03-19T13:53:35.255Z,99801.63
2023-03-19T13:59:16.998Z,99787.06
2023-03-19T14:04:26.149Z,99787.06
2023-03-19T14:09:33.648Z,99781.16
2023-03-19T14:14:44.450Z,99783.59
2023-03-19T14:19:46.333Z,99767.44
2023-03-19T14:25:15.150Z,99766.81
2023-03-19T14:30:52.513Z,99756.75
2023-03-19T14:35:54.312Z,99738.81
2023-03-19T14:40:56.254Z,99733.13
2023-03-19T14:46:00.941Z,99759.81
2023-03-19T14:51:31.994Z,99758.34
2023-03-19T14:56:35.848Z,99756.19
2023-03-19T15:01:41.550Z,99757.88
2023-03-19T15:06:51.789Z,99754.56
2023-03-19T15:12:21.295Z,99751.34
2023-03-19T15:17:29.801Z,99739.69
2023-03-19T15:22:36.935Z,99738.09
2023-03-19T15:27:41.182Z,99735.34
2023-03-19T15:32:54.423Z,99744.81
2023-03-19T15:38:09.728Z,99744.69
2023-03-19T15:43:13.070Z,99759.59
2023-03-19T15:48:25.569Z,99765.34
2023-03-19T15:53:32.339Z,99759.59
2023-03-19T15:58:48.565Z,99768.94
2023-03-19T16:04:00.061Z,99775.75
2023-03-19T16:09:23.890Z,99775.97
2023-03-19T16:14:25.772Z,99780.31
2023-03-19T16:19:40.093Z,99779.63
2023-03-19T16:25:09.040Z,99787.47
2023-03-19T16:30:27.672Z,99790.19
2023-03-19T16:35:31.724Z,99792.03
2023-03-19T16:40:42.830Z,99798.13
2023-03-19T16:45:49.328Z,99797.44
2023-03-19T16:50:51.642Z,99808.59
2023-03-19T16:55:55.273Z,99817.13
2023-03-19T17:00:59.365Z,99818.97
2023-03-19T17:06:02.706Z,99833.47
2023-03-19T17:11:09.371Z,99828.50
2023-03-19T17:16:11.894Z,99841.25
2023-03-19T17:21:32.569Z,99840.50
2023-03-19T17:26:46.142Z,99841.44
2023-03-19T17:31:54.290Z,99838.09
2023-03-19T17:37:01.751Z,99833.09
2023-03-19T17:42:16.528Z,99839.88
2023-03-19T17:47:18.967Z,99840.72
2023-03-19T17:52:21.302Z,99852.50
2023-03-19T17:57:22.952Z,99844.91
2023-03-19T18:02:32.027Z,99854.13
2023-03-19T18:07:42.839Z,99859.97
2023-03-19T18:12:44.612Z,99860.75
2023-03-19T18:17:53.000Z,99866.56
2023-03-19T18:22:54.726Z,99863.19
2023-03-19T18:27:57.100Z,99866.47
2023-03-19T18:33:02.901Z,99863.03
2023-03-19T18:38:16.151Z,99869.69
2023-03-19T18:43:17.931Z,99875.50
2023-03-19T18:48:24.610Z,99876.25
2023-03-19T18:53:26.602Z,99880.41
2023-03-19T18:58:29.174Z,99882.00
2023-03-19T19:03:33.489Z,99886.09
2023-03-19T19:08:35.440Z,99889.34
2023-03-19T19:13:53.322Z,99901.00
2023-03-19T19:18:57.674Z,99891.66
2023-03-19T19:23:59.361Z,99895.78
2023-03-19T19:29:01.473Z,99895.72
2023-03-19T19:34:03.169Z,99898.97
2023-03-19T19:39:04.925Z,99897.22
2023-03-19T19:44:07.060Z,99903.88
2023-03-19T19:49:13.435Z,99909.69
2023-03-19T19:54:15.689Z,99913.78
2023-03-19T19:59:25.586Z,99912.00
2023-03-19T20:04:29.973Z,99921.09
2023-03-19T20:09:32.342Z,99929.44
2023-03-19T20:14:34.137Z,99925.16
2023-03-19T20:19:35.910Z,99930.00
2023-03-19T20:24:39.641Z,99929.91
2023-03-19T20:29:41.512Z,99936.44
2023-03-19T20:34:43.485Z,99934.66
2023-03-19T20:39:45.374Z,99932.81
2023-03-19T20:44:47.688Z,99934.31
2023-03-19T20:49:49.539Z,99943.31
2023-03-19T20:54:51.441Z,99947.41
2023-03-19T20:59:53.200Z,99942.19
2023-03-19T21:04:54.899Z,99950.38
2023-03-19T21:09:58.083Z,99948.47
2023-03-19T21:15:01.242Z,99946.66
2023-03-19T21:20:03.224Z,99946.53
2023-03-19T21:25:08.111Z,99949.69
2023-03-19T21:30:14.736Z,99953.69
2023-03-19T21:35:26.467Z,99940.13
2023-03-19T21:40:30.794Z,99958.38
2023-03-19T21:45:36.515Z,99954.81
2023-03-19T21:50:40.103Z,99957.94
2023-03-19T21:55:42.347Z,99965.28
2023-03-19T22:00:44.990Z,99965.16
2023-03-19T22:05:51.258Z,99964.13
2023-03-19T22:10:57.131Z,99970.63
2023-03-19T22:16:00.412Z,99967.09
2023-03-19T22:21:02.396Z,99985.25
2023-03-19T22:26:04.121Z,99977.50
2023-03-19T22:31:06.323Z,99976.53
2023-03-19T22:36:12.684Z,99971.34
2023-03-19T22:41:28.779Z,99971.16
2023-03-19T22:46:31.208Z,99975.16
2023-03-19T22:51:33.163Z,99977.44
2023-03-19T22:56:34.841Z,99970.44
2023-03-19T23:01:47.213Z,99969.94
2023-03-19T23:06:50.108Z,99976.41
2023-03-19T23:11:53.616Z,99980.53
2023-03-19T23:22:00.129Z,99998.47
2023-03-19T23:27:02.978Z,99995.03
2023-03-19T23:32:05.006Z,99984.78
2023-03-19T23:37:06.976Z,99986.28
2023-03-19T23:42:22.393Z,99985.25
2023-03-19T23:47:24.249Z,99991.94
2023-03-19T23:52:26.223Z,99999.34
2023-03-19T23:57:27.908Z,99995.03
